Detalii statie MIRACOM [00001CFF]

Toti senzorii

Date Temperatura solului [C]Precipitatii [mm]Voltaj baterie [mV]Leaf Wetness [Min]HC Air temperature [C]HC Relative humidity [%]Punctul de roua [C]
medieminmaxsumaultimatimpmedieminmaxmediemediemin
2020-05-25 23:00:00 17.3 17.2 17.5 0 6962 14.08 13.55 14.46 0 0 0
2020-05-26 00:00:00 17.1 16.9 17.3 0 6962 13.7 13.17 14.19 0 0 0
2020-05-26 01:00:00 16.7 16.5 16.9 0 6904 13.14 0 0 0
2020-05-26 02:00:00 16.4 16.3 16.6 0 6874 13 0 0 0
2020-05-26 03:00:00 16.2 16.1 16.4 0 6922 3 12.67 0 0 0
2020-05-26 04:00:00 16 15.8 16.1 0 6914 12.03 11.71 12.43 0 0 0
2020-05-26 05:00:00 15.8 15.7 16.1 0 6914 11.95 11.67 12.21 0 0 0
2020-05-26 06:00:00 15.7 15.6 15.9 0 6914 11.75 11.46 12.32 0 0 0
2020-05-26 07:00:00 15.5 15.4 15.6 0 6932 12.16 11.85 12.37 0 0 0
2020-05-26 08:00:00 15.3 15.2 15.4 0.2 7010 12.02 11.84 12.22 0 0 0
2020-05-26 09:00:00 15.2 15 15.4 0.2 7108 12.14 11.96 12.46 0 0 0
2020-05-26 10:00:00 15.1 14.8 15.3 0 7332 13.21 12.59 14.62 0 0 0
2020-05-26 11:00:00 15.1 15.1 15.3 0.2 7342 14.84 14.06 15.79 0 0 0
2020-05-26 12:00:00 15.3 15.1 15.5 0 7342 17.89 16.31 19.61 0 0 0
2020-05-26 13:00:00 15.6 15.5 15.9 0 7332 20.88 18.11 23.88 0 0 0
2020-05-26 14:00:00 16.2 15.8 16.5 0 7324 18.81 17.99 21.52 0 0 0
2020-05-26 15:00:00 16.8 16.6 17 0 7332 18.99 18.18 19.82 0 0 0
2020-05-26 16:00:00 17.1 16.9 17.3 0 7138 19.23 17.45 19.8 0 0 0
2020-05-26 17:00:00 17.2 17.2 17.3 0 7196 14.11 13.61 16.33 0 0 0
2020-05-26 18:00:00 17.2 17.2 17.4 0 7332 13.91 13.68 14.16 0 0 0
2020-05-26 19:00:00 17.1 17 17.3 0 7088 13.91 13.74 14.04 0 0 0
2020-05-26 20:00:00 17 16.8 17.2 0 7000 13.6 12.98 14.15 0 0 0
2020-05-26 21:00:00 16.8 16.6 17 0 7000 13.19 12.99 13.53 0 0 0
2020-05-26 22:00:00 16.6 16.5 16.8 0 6982 12.65 12.4 12.97 0 0 0
2020-05-26 23:00:00 16.3 16.2 16.5 0 6982 12.36 12.27 12.43 0 0 0
2020-05-27 00:00:00 16 16 16.3 0 6962 12.39 12.32 12.45 0 0 0
2020-05-27 01:00:00 15.8 15.7 16 0 6922 -43.93 12.45 0 0 0
2020-05-27 02:00:00 15.6 15.5 15.8 0 6904 11.49 0 0 0
2020-05-27 03:00:00 15.4 15.3 15.5 0 6894 11.66 0 0 0
2020-05-27 04:00:00 15.1 15 15.4 0 6884 11.1 0 0 0
2020-05-27 05:00:00 15 15 15.2 0 6914 10.42 10.07 10.89 0 0 0
2020-05-27 06:00:00 14.9 14.5 15.1 0 6914 11.08 10.23 11.49 0 0 0
2020-05-27 07:00:00 14.7 14.6 14.9 0 7050 11.65 11.32 12.28 0 0 0
2020-05-27 08:00:00 14.4 14.3 14.7 0 7148 13.1 12.39 14 0 0 0
2020-05-27 09:00:00 14.4 14.3 14.7 0 7158 14.93 14.38 15.45 0 0 0
2020-05-27 10:00:00 14.3 14.1 14.6 0 7274 16.6 15.62 17.81 0 0 0
2020-05-27 11:00:00 14.4 14.2 14.7 0 7352 18.01 16.76 19.08 0 0 0
2020-05-27 12:00:00 14.7 14.4 15 0 7324 18.18 16.46 21.29 0 0 0
2020-05-27 13:00:00 15.2 15 15.5 0 7332 17.95 17.19 18.51 0 0 0
2020-05-27 14:00:00 15.6 15.5 15.9 0 7332 18.67 18.12 19.84 0 0 0
2020-05-27 15:00:00 16 15.8 16.2 0 7352 19.18 18.58 19.77 0 0 0
2020-05-27 16:00:00 16.4 16.1 16.6 0 7342 19.75 19.11 20.68 0 0 0
2020-05-27 17:00:00 16.8 16.6 17.1 0 7342 20.18 19.31 20.54 0 0 0
2020-05-27 18:00:00 17.2 16.9 17.5 0 7324 20.12 18.94 20.69 0 0 0
2020-05-27 19:00:00 17.7 17.5 18 0 7324 19.46 18.64 20.1 0 0 0
2020-05-27 20:00:00 17.9 17.9 18.1 0 7088 17.59 16.74 18.3 0 0 0
2020-05-27 21:00:00 17.9 17.8 18.1 0 7010 16.43 15.54 16.94 0 0 0
2020-05-27 22:00:00 17.5 17.4 17.8 0 6992 14.63 14.35 15.27 0 0 0